Time,TemperatureF,DewpointF,PressureIn,WindDirection,WindDirectionDegrees,WindSpeedMPH,WindSpeedGustMPH,Humidity,HourlyPrecipIn,Conditions,Clouds,dailyrainin,SoftwareType,DateUTC
2013-03-14 00:01:00,53.4,49.3,29.50,SSE,168,0.0,0.0,86,0.00,,---,0.00,VWS V14.00,2013-03-14 07:01:00,
2013-03-14 00:06:00,53.4,49.0,29.50,SSE,168,0.0,0.0,85,0.00,,---,0.00,VWS V14.00,2013-03-14 07:06:00,
2013-03-14 00:11:00,53.4,49.0,29.47,South,170,0.0,0.0,85,0.00,,---,0.00,VWS V14.00,2013-03-14 07:11:00,
2013-03-14 00:16:00,53.4,49.0,29.47,South,182,0.0,0.0,85,0.00,,---,0.00,VWS V14.00,2013-03-14 07:16:00,
2013-03-14 00:21:00,53.4,49.0,29.47,South,182,0.0,0.0,85,0.00,,---,0.00,VWS V14.00,2013-03-14 07:21:00,
2013-03-14 00:26:00,53.4,49.0,29.47,South,182,0.0,0.0,85,0.00,,---,0.00,VWS V14.00,2013-03-14 07:26:00,
2013-03-14 00:31:00,53.4,49.0,29.47,South,182,0.0,0.0,85,0.00,,---,0.00,VWS V14.00,2013-03-14 07:31:00,
2013-03-14 00:36:00,53.2,48.8,29.47,South,183,0.0,0.0,85,0.00,,---,0.00,VWS V14.00,2013-03-14 07:36:00,
2013-03-14 00:41:00,53.1,48.7,29.47,South,183,0.0,0.0,85,0.00,,---,0.00,VWS V14.00,2013-03-14 07:41:00,
2013-03-14 00:46:00,53.1,49.0,29.47,South,181,0.0,0.0,86,0.00,,---,0.00,VWS V14.00,2013-03-14 07:46:00,
2013-03-14 00:52:00,53.1,49.0,29.47,South,181,0.0,0.0,86,0.00,,---,0.00,VWS V14.00,2013-03-14 07:52:00,
2013-03-14 00:57:00,53.2,49.2,29.47,South,176,0.0,0.0,86,0.00,,---,0.00,VWS V14.00,2013-03-14 07:57:00,
2013-03-14 01:01:00,53.2,49.2,29.47,South,175,0.0,0.0,86,0.00,,---,0.00,VWS V14.00,2013-03-14 08:01:00,
2013-03-14 01:07:00,53.1,49.0,29.47,South,176,0.0,0.0,86,0.00,,---,0.00,VWS V14.00,2013-03-14 08:07:00,
2013-03-14 01:12:00,53.1,49.0,29.47,South,175,0.0,0.0,86,0.00,,---,0.00,VWS V14.00,2013-03-14 08:12:00,
2013-03-14 01:17:00,53.2,49.2,29.47,South,175,0.0,0.0,86,0.00,,---,0.00,VWS V14.00,2013-03-14 08:17:00,
2013-03-14 01:22:00,53.2,48.8,29.47,South,175,0.0,0.0,85,0.00,,---,0.00,VWS V14.00,2013-03-14 08:22:00,
2013-03-14 01:27:00,53.1,48.7,29.47,South,176,0.0,0.0,85,0.00,,---,0.00,VWS V14.00,2013-03-14 08:27:00,
2013-03-14 01:32:00,53.1,48.7,29.47,South,174,0.0,0.0,85,0.00,,---,0.00,VWS V14.00,2013-03-14 08:32:00,
2013-03-14 01:37:00,53.1,48.7,29.47,South,174,0.0,0.0,85,0.00,,---,0.00,VWS V14.00,2013-03-14 08:37:00,
2013-03-14 01:42:00,53.1,48.7,29.47,South,174,0.0,0.0,85,0.00,,---,0.00,VWS V14.00,2013-03-14 08:42:00,
2013-03-14 01:47:00,53.1,48.7,29.47,South,174,0.0,0.0,85,0.00,,---,0.00,VWS V14.00,2013-03-14 08:47:00,
2013-03-14 01:52:00,53.1,48.7,29.47,South,174,0.0,0.0,85,0.00,,---,0.00,VWS V14.00,2013-03-14 08:52:00,
2013-03-14 01:57:00,53.1,48.7,29.47,South,174,0.0,0.0,85,0.00,,---,0.00,VWS V14.00,2013-03-14 08:57:00,
2013-03-14 02:02:00,53.1,48.7,29.47,South,174,0.0,0.0,85,0.00,,---,0.00,VWS V14.00,2013-03-14 09:02:00,
2013-03-14 02:07:00,53.1,48.7,29.47,South,174,0.0,0.0,85,0.00,,---,0.00,VWS V14.00,2013-03-14 09:07:00,
2013-03-14 02:12:00,53.1,48.4,29.47,South,174,0.0,0.0,84,0.00,,---,0.00,VWS V14.00,2013-03-14 09:12:00,
2013-03-14 02:17:00,52.9,48.2,29.47,South,174,0.0,0.0,84,0.00,,---,0.00,VWS V14.00,2013-03-14 09:17:00,
2013-03-14 02:22:00,52.9,48.2,29.47,South,174,0.0,0.0,84,0.00,,---,0.00,VWS V14.00,2013-03-14 09:22:00,
2013-03-14 02:27:00,52.7,48.0,29.47,South,174,0.0,0.0,84,0.00,,---,0.00,VWS V14.00,2013-03-14 09:27:00,
2013-03-14 02:32:00,52.7,48.0,29.47,South,174,0.0,0.0,84,0.00,,---,0.00,VWS V14.00,2013-03-14 09:32:00,
2013-03-14 02:37:00,52.7,48.0,29.47,South,174,0.0,0.0,84,0.00,,---,0.00,VWS V14.00,2013-03-14 09:37:00,
2013-03-14 02:42:00,52.7,48.0,29.47,South,174,0.0,0.0,84,0.00,,---,0.00,VWS V14.00,2013-03-14 09:42:00,
2013-03-14 02:47:00,52.7,48.0,29.47,South,174,0.0,0.0,84,0.00,,---,0.00,VWS V14.00,2013-03-14 09:47:00,
2013-03-14 02:52:00,52.7,48.0,29.44,South,174,0.0,0.0,84,0.00,,---,0.00,VWS V14.00,2013-03-14 09:52:00,
2013-03-14 02:57:00,52.5,47.5,29.44,SE,137,0.0,0.0,83,0.00,,---,0.00,VWS V14.00,2013-03-14 09:57:00,
2013-03-14 03:02:00,52.3,47.3,29.44,SE,127,0.0,0.0,83,0.00,,---,0.00,VWS V14.00,2013-03-14 10:02:00,
2013-03-14 03:07:00,52.3,47.3,29.47,SE,144,0.0,0.0,83,0.00,,---,0.00,VWS V14.00,2013-03-14 10:07:00,
2013-03-14 03:12:00,52.3,47.3,29.47,SSE,167,0.0,0.0,83,0.00,,---,0.00,VWS V14.00,2013-03-14 10:12:00,
2013-03-14 03:17:00,52.3,47.3,29.47,SSE,166,0.0,0.0,83,0.00,,---,0.00,VWS V14.00,2013-03-14 10:17:00,
2013-03-14 03:22:00,52.3,47.3,29.44,SSE,166,0.0,0.0,83,0.00,,---,0.00,VWS V14.00,2013-03-14 10:22:00,
2013-03-14 03:27:00,52.3,47.3,29.44,SSE,166,0.0,0.0,83,0.00,,---,0.00,VWS V14.00,2013-03-14 10:27:00,
2013-03-14 03:32:00,52.2,47.2,29.44,SSW,193,0.0,0.0,83,0.00,,---,0.00,VWS V14.00,2013-03-14 10:32:00,
2013-03-14 03:37:00,52.2,47.2,29.44,SSE,159,0.0,0.0,83,0.00,,---,0.00,VWS V14.00,2013-03-14 10:37:00,
2013-03-14 03:42:00,52.2,47.2,29.44,South,177,0.0,0.0,83,0.00,,---,0.00,VWS V14.00,2013-03-14 10:42:00,
2013-03-14 03:47:00,52.2,47.2,29.44,SSE,150,0.0,0.0,83,0.00,,---,0.00,VWS V14.00,2013-03-14 10:47:00,
2013-03-14 03:52:00,52.0,47.0,29.44,SE,128,0.0,0.0,83,0.00,,---,0.00,VWS V14.00,2013-03-14 10:52:00,
2013-03-14 03:57:00,51.8,47.1,29.44,ESE,112,0.0,0.0,84,0.00,,---,0.00,VWS V14.00,2013-03-14 10:57:00,
2013-03-14 04:02:00,51.6,47.0,29.44,ESE,103,0.0,0.0,84,0.00,,---,0.00,VWS V14.00,2013-03-14 11:02:00,
2013-03-14 04:07:00,51.6,47.0,29.44,ESE,113,0.0,0.0,84,0.00,,---,0.00,VWS V14.00,2013-03-14 11:07:00,
2013-03-14 04:12:00,51.6,47.0,29.44,SE,144,0.0,0.0,84,0.00,,---,0.00,VWS V14.00,2013-03-14 11:12:00,
2013-03-14 04:17:00,51.6,47.0,29.44,South,180,0.0,0.0,84,0.00,,---,0.00,VWS V14.00,2013-03-14 11:17:00,
2013-03-14 04:22:00,51.6,47.0,29.44,SSE,151,0.0,0.0,84,0.00,,---,0.00,VWS V14.00,2013-03-14 11:22:00,
2013-03-14 04:28:00,51.8,47.1,29.44,SSE,151,0.0,0.0,84,0.00,,---,0.00,VWS V14.00,2013-03-14 11:28:00,
2013-03-14 04:33:00,51.8,47.1,29.44,SE,139,0.0,0.0,84,0.00,,---,0.00,VWS V14.00,2013-03-14 11:33:00,
2013-03-14 04:38:00,51.8,47.1,29.44,South,178,0.0,0.0,84,0.00,,---,0.00,VWS V14.00,2013-03-14 11:38:00,
2013-03-14 04:43:00,51.8,47.1,29.44,SE,126,0.0,0.0,84,0.00,,---,0.00,VWS V14.00,2013-03-14 11:43:00,
2013-03-14 04:48:00,51.8,47.1,29.44,SE,127,0.0,0.0,84,0.00,,---,0.00,VWS V14.00,2013-03-14 11:48:00,
2013-03-14 04:53:00,51.8,47.1,29.44,SE,138,0.0,0.0,84,0.00,,---,0.00,VWS V14.00,2013-03-14 11:53:00,
2013-03-14 04:58:00,51.8,47.1,29.44,SE,143,0.0,0.0,84,0.00,,---,0.00,VWS V14.00,2013-03-14 11:58:00,
2013-03-14 05:03:00,51.8,47.1,29.44,SE,144,0.0,0.0,84,0.00,,---,0.00,VWS V14.00,2013-03-14 12:03:00,
2013-03-14 05:08:00,51.8,47.1,29.41,SE,144,0.0,0.0,84,0.00,,---,0.00,VWS V14.00,2013-03-14 12:08:00,
2013-03-14 05:13:00,51.6,47.0,29.41,SE,144,0.0,0.0,84,0.00,,---,0.00,VWS V14.00,2013-03-14 12:13:00,
2013-03-14 05:18:00,51.6,47.0,29.41,SE,144,0.0,0.0,84,0.00,,---,0.00,VWS V14.00,2013-03-14 12:18:00,
2013-03-14 05:23:00,51.6,47.0,29.44,South,179,0.0,0.0,84,0.00,,---,0.00,VWS V14.00,2013-03-14 12:23:00,
2013-03-14 05:28:00,51.6,47.0,29.44,South,179,0.0,0.0,84,0.00,,---,0.00,VWS V14.00,2013-03-14 12:28:00,
2013-03-14 05:33:00,51.8,47.1,29.44,South,179,0.0,0.0,84,0.00,,---,0.00,VWS V14.00,2013-03-14 12:33:00,
2013-03-14 05:38:00,51.8,47.1,29.44,South,179,0.0,0.0,84,0.00,,---,0.00,VWS V14.00,2013-03-14 12:38:00,
2013-03-14 05:43:00,51.8,47.1,29.44,South,179,0.0,0.0,84,0.00,,---,0.00,VWS V14.00,2013-03-14 12:43:00,
2013-03-14 05:48:00,52.0,47.3,29.44,South,179,0.0,0.0,84,0.00,,---,0.00,VWS V14.00,2013-03-14 12:48:00,
2013-03-14 05:53:00,52.0,47.3,29.44,South,179,0.0,0.0,84,0.00,,---,0.00,VWS V14.00,2013-03-14 12:53:00,
2013-03-14 05:58:00,51.8,47.1,29.44,South,172,0.0,0.0,84,0.00,,---,0.00,VWS V14.00,2013-03-14 12:58:00,
2013-03-14 06:03:00,51.8,47.1,29.44,SSE,159,0.0,0.0,84,0.00,,---,0.00,VWS V14.00,2013-03-14 13:03:00,
2013-03-14 06:08:00,51.8,47.1,29.44,South,177,0.0,0.0,84,0.00,,---,0.00,VWS V14.00,2013-03-14 13:08:00,
2013-03-14 06:13:00,52.0,47.3,29.44,SSE,162,0.0,0.0,84,0.00,,---,0.00,VWS V14.00,2013-03-14 13:13:00,
2013-03-14 06:18:00,52.0,47.3,29.44,ESE,120,0.0,0.0,84,0.00,,---,0.00,VWS V14.00,2013-03-14 13:18:00,
2013-03-14 06:23:00,52.0,47.0,29.41,SSW,205,0.0,0.0,83,0.00,,---,0.00,VWS V14.00,2013-03-14 13:23:00,
2013-03-14 06:28:00,51.8,46.8,29.41,SSE,165,0.0,0.0,83,0.00,,---,0.00,VWS V14.00,2013-03-14 13:28:00,
2013-03-14 06:33:00,51.6,46.6,29.41,SE,128,0.0,0.0,83,0.00,,---,0.00,VWS V14.00,2013-03-14 13:33:00,
2013-03-14 06:38:00,51.6,46.6,29.41,SSE,150,0.0,0.0,83,0.00,,---,0.00,VWS V14.00,2013-03-14 13:38:00,
2013-03-14 06:43:00,51.6,46.6,29.41,SSE,150,0.0,0.0,83,0.00,,---,0.00,VWS V14.00,2013-03-14 13:43:00,
2013-03-14 06:48:00,51.8,46.8,29.41,South,186,0.0,2.2,83,0.00,,---,0.00,VWS V14.00,2013-03-14 13:48:00,
2013-03-14 06:53:00,51.8,46.8,29.44,South,186,0.0,2.2,83,0.00,,---,0.00,VWS V14.00,2013-03-14 13:53:00,
2013-03-14 06:58:00,51.8,46.8,29.44,South,186,0.0,2.2,83,0.00,,---,0.00,VWS V14.00,2013-03-14 13:58:00,
2013-03-14 07:03:00,51.8,46.8,29.44,ESE,107,0.0,0.0,83,0.00,,---,0.00,VWS V14.00,2013-03-14 14:03:00,
2013-03-14 07:08:00,51.8,46.5,29.44,SE,135,0.0,0.0,82,0.00,,---,0.00,VWS V14.00,2013-03-14 14:08:00,
2013-03-14 07:13:00,51.8,46.5,29.44,ESE,111,0.0,0.0,82,0.00,,---,0.00,VWS V14.00,2013-03-14 14:13:00,
2013-03-14 07:18:00,51.6,46.3,29.44,ESE,118,0.0,0.0,82,0.00,,---,0.00,VWS V14.00,2013-03-14 14:18:00,
2013-03-14 07:23:00,51.6,46.3,29.44,ESE,123,0.0,0.0,82,0.00,,---,0.00,VWS V14.00,2013-03-14 14:23:00,
2013-03-14 07:28:00,51.6,46.3,29.44,ESE,114,0.0,0.0,82,0.00,,---,0.00,VWS V14.00,2013-03-14 14:28:00,
2013-03-14 07:33:00,51.4,46.1,29.44,SE,135,0.0,0.0,82,0.00,,---,0.00,VWS V14.00,2013-03-14 14:33:00,
2013-03-14 07:38:00,51.4,46.1,29.44,SE,127,0.0,0.0,82,0.00,,---,0.00,VWS V14.00,2013-03-14 14:38:00,
2013-03-14 07:43:00,51.3,46.0,29.44,ESE,114,0.0,0.0,82,0.00,,---,0.00,VWS V14.00,2013-03-14 14:43:00,
2013-03-14 07:48:00,51.3,45.6,29.44,SSE,162,0.0,0.0,81,0.00,,---,0.00,VWS V14.00,2013-03-14 14:48:00,
2013-03-14 07:53:00,51.3,45.6,29.44,ESE,118,0.0,0.0,81,0.00,,---,0.00,VWS V14.00,2013-03-14 14:53:00,
2013-03-14 07:58:00,51.3,45.6,29.44,East,99,0.0,0.0,81,0.00,,---,0.00,VWS V14.00,2013-03-14 14:58:00,
2013-03-14 08:03:00,51.3,45.6,29.44,ESE,123,0.0,0.0,81,0.00,,---,0.00,VWS V14.00,2013-03-14 15:03:00,
2013-03-14 08:08:00,51.4,46.1,29.44,ESE,111,0.0,0.0,82,0.00,,---,0.00,VWS V14.00,2013-03-14 15:08:00,
2013-03-14 08:13:00,51.4,45.8,29.44,East,89,0.0,0.0,81,0.00,,---,0.00,VWS V14.00,2013-03-14 15:13:00,
2013-03-14 08:18:00,51.4,45.8,29.44,ESE,110,0.0,0.0,81,0.00,,---,0.00,VWS V14.00,2013-03-14 15:18:00,
2013-03-14 08:24:00,51.6,46.0,29.44,ESE,109,0.0,0.0,81,0.00,,---,0.00,VWS V14.00,2013-03-14 15:24:00,
2013-03-14 08:29:00,51.6,46.0,29.44,SE,146,0.0,0.0,81,0.00,,---,0.00,VWS V14.00,2013-03-14 15:29:00,
2013-03-14 08:34:00,51.6,46.0,29.44,ESE,118,0.0,0.0,81,0.00,,---,0.00,VWS V14.00,2013-03-14 15:34:00,
2013-03-14 08:39:00,51.6,46.0,29.44,SE,138,0.0,0.0,81,0.00,,---,0.00,VWS V14.00,2013-03-14 15:39:00,
2013-03-14 08:44:00,51.8,46.2,29.44,SE,129,0.0,0.0,81,0.00,,---,0.00,VWS V14.00,2013-03-14 15:44:00,
2013-03-14 08:49:00,51.8,46.2,29.44,SE,129,0.0,0.0,81,0.00,,---,0.00,VWS V14.00,2013-03-14 15:49:00,
2013-03-14 08:54:00,52.0,46.3,29.44,ESE,113,0.0,0.0,81,0.00,,---,0.00,VWS V14.00,2013-03-14 15:54:00,
2013-03-14 08:59:00,52.0,46.3,29.44,SSE,153,0.0,0.0,81,0.00,,---,0.00,VWS V14.00,2013-03-14 15:59:00,
2013-03-14 09:04:00,52.0,46.3,29.44,SE,143,0.0,0.0,81,0.00,,---,0.00,VWS V14.00,2013-03-14 16:04:00,
2013-03-14 09:09:00,52.0,46.3,29.44,ESE,119,0.0,0.0,81,0.00,,---,0.00,VWS V14.00,2013-03-14 16:09:00,
2013-03-14 09:14:00,52.2,46.5,29.44,ESE,111,0.0,0.0,81,0.00,,---,0.00,VWS V14.00,2013-03-14 16:14:00,
2013-03-14 09:19:00,52.2,46.5,29.44,SSE,159,2.7,2.7,81,0.00,,---,0.00,VWS V14.00,2013-03-14 16:19:00,
2013-03-14 09:24:00,52.2,46.2,29.47,South,169,0.0,2.7,80,0.00,,---,0.00,VWS V14.00,2013-03-14 16:24:00,
2013-03-14 09:29:00,52.2,46.2,29.47,SSE,162,0.0,2.7,80,0.00,,---,0.00,VWS V14.00,2013-03-14 16:29:00,
2013-03-14 09:34:00,52.3,46.4,29.47,SSW,195,0.0,2.7,80,0.00,,---,0.00,VWS V14.00,2013-03-14 16:34:00,
2013-03-14 09:39:00,52.3,46.4,29.47,SSE,152,0.0,2.7,80,0.00,,---,0.00,VWS V14.00,2013-03-14 16:39:00,
2013-03-14 09:44:00,52.2,46.2,29.47,ESE,119,0.0,0.0,80,0.00,,---,0.00,VWS V14.00,2013-03-14 16:44:00,
2013-03-14 09:49:00,52.2,46.2,29.47,South,172,0.0,2.7,80,0.00,,---,0.00,VWS V14.00,2013-03-14 16:49:00,
2013-03-14 09:54:00,52.3,46.4,29.47,South,170,0.0,2.7,80,0.00,,---,0.00,VWS V14.00,2013-03-14 16:54:00,
2013-03-14 09:59:00,52.5,46.5,29.47,ESE,110,0.0,2.7,80,0.00,,---,0.00,VWS V14.00,2013-03-14 16:59:00,
2013-03-14 10:04:00,52.5,46.5,29.47,South,169,0.0,2.2,80,0.00,,---,0.00,VWS V14.00,2013-03-14 17:04:00,
2013-03-14 10:09:00,52.7,46.7,29.47,SE,146,0.0,2.2,80,0.00,,---,0.00,VWS V14.00,2013-03-14 17:09:00,
2013-03-14 10:14:00,52.7,46.7,29.47,SSW,211,0.0,2.2,80,0.00,,---,0.00,VWS V14.00,2013-03-14 17:14:00,
2013-03-14 10:19:00,52.9,46.9,29.47,SE,133,0.0,2.2,80,0.00,,---,0.00,VWS V14.00,2013-03-14 17:19:00,
2013-03-14 10:24:00,52.9,46.5,29.47,South,188,0.0,0.0,79,0.00,,---,0.00,VWS V14.00,2013-03-14 17:24:00,
2013-03-14 10:29:00,52.9,46.5,29.47,South,174,0.0,0.0,79,0.00,,---,0.00,VWS V14.00,2013-03-14 17:29:00,
2013-03-14 10:34:00,52.9,46.5,29.47,South,177,0.0,0.0,79,0.00,,---,0.00,VWS V14.00,2013-03-14 17:34:00,
2013-03-14 10:39:00,52.9,46.5,29.47,SSE,150,0.0,2.2,79,0.00,,---,0.00,VWS V14.00,2013-03-14 17:39:00,
2013-03-14 10:44:00,52.9,46.5,29.47,South,169,0.0,0.0,79,0.00,,---,0.00,VWS V14.00,2013-03-14 17:44:00,
2013-03-14 10:49:00,52.9,46.2,29.47,SSE,159,0.0,0.0,78,0.00,,---,0.00,VWS V14.00,2013-03-14 17:49:00,
2013-03-14 10:54:00,52.9,46.2,29.47,SSE,157,0.0,2.2,78,0.00,,---,0.00,VWS V14.00,2013-03-14 17:54:00,
2013-03-14 10:59:00,52.7,46.0,29.47,SSW,206,0.0,2.2,78,0.00,,---,0.00,VWS V14.00,2013-03-14 17:59:00,
2013-03-14 11:04:00,52.7,46.0,29.47,South,183,0.0,0.0,78,0.00,,---,0.00,VWS V14.00,2013-03-14 18:04:00,
2013-03-14 11:09:00,52.7,46.0,29.47,SSE,155,0.0,2.2,78,0.00,,---,0.00,VWS V14.00,2013-03-14 18:09:00,
2013-03-14 11:14:00,52.7,46.0,29.47,SSE,162,0.0,2.7,78,0.00,,---,0.00,VWS V14.00,2013-03-14 18:14:00,
2013-03-14 11:19:00,52.7,46.0,29.47,SSE,152,0.0,2.7,78,0.00,,---,0.00,VWS V14.00,2013-03-14 18:19:00,
2013-03-14 11:24:00,52.9,46.2,29.47,SSE,151,0.0,0.0,78,0.00,,---,0.00,VWS V14.00,2013-03-14 18:24:00,
2013-03-14 11:29:00,53.1,46.4,29.47,ESE,112,0.0,0.0,78,0.00,,---,0.00,VWS V14.00,2013-03-14 18:29:00,
2013-03-14 11:34:00,53.1,46.0,29.47,South,186,0.0,0.0,77,0.00,,---,0.00,VWS V14.00,2013-03-14 18:34:00,
2013-03-14 11:39:00,53.1,46.0,29.47,SSE,164,0.0,0.0,77,0.00,,---,0.00,VWS V14.00,2013-03-14 18:39:00,
2013-03-14 11:44:00,53.1,45.7,29.47,ESE,110,0.0,2.7,76,0.00,,---,0.00,VWS V14.00,2013-03-14 18:44:00,
2013-03-14 11:49:00,52.9,45.2,29.47,East,96,0.0,2.7,75,0.00,,---,0.00,VWS V14.00,2013-03-14 18:49:00,
2013-03-14 11:54:00,52.7,44.7,29.47,ENE,77,0.0,2.7,74,0.00,,---,0.00,VWS V14.00,2013-03-14 18:54:00,
2013-03-14 11:59:00,52.3,44.3,29.47,SE,143,0.0,2.7,74,0.00,,---,0.00,VWS V14.00,2013-03-14 18:59:00,
2013-03-14 12:04:00,52.2,44.1,29.47,South,169,0.0,0.0,74,0.00,,---,0.00,VWS V14.00,2013-03-14 19:04:00,
2013-03-14 12:09:00,52.2,44.5,29.47,SSE,158,0.0,3.1,75,0.00,,---,0.00,VWS V14.00,2013-03-14 19:09:00,
2013-03-14 12:14:00,52.2,44.5,29.47,ESE,116,0.0,3.1,75,0.00,,---,0.00,VWS V14.00,2013-03-14 19:14:00,
2013-03-14 12:19:00,52.2,44.5,29.47,ENE,78,0.0,3.1,75,0.00,,---,0.00,VWS V14.00,2013-03-14 19:19:00,
2013-03-14 12:24:00,52.2,44.8,29.47,ESE,109,0.0,0.0,76,0.00,,---,0.00,VWS V14.00,2013-03-14 19:24:00,
2013-03-14 12:30:00,52.2,44.5,29.47,South,169,0.0,0.0,75,0.00,,---,0.00,VWS V14.00,2013-03-14 19:30:00,
2013-03-14 12:35:00,52.2,44.8,29.47,ESE,105,0.0,0.0,76,0.00,,---,0.00,VWS V14.00,2013-03-14 19:35:00,
2013-03-14 12:40:00,52.2,44.8,29.47,SSW,198,0.0,2.2,76,0.00,,---,0.00,VWS V14.00,2013-03-14 19:40:00,
2013-03-14 12:45:00,52.2,45.2,29.47,SSE,151,0.0,0.0,77,0.00,,---,0.00,VWS V14.00,2013-03-14 19:45:00,
2013-03-14 12:50:00,52.2,45.2,29.47,ESE,114,0.0,0.0,77,0.00,,---,0.00,VWS V14.00,2013-03-14 19:50:00,
2013-03-14 12:55:00,52.2,45.2,29.47,ESE,106,0.0,0.0,77,0.00,,---,0.00,VWS V14.00,2013-03-14 19:55:00,
2013-03-14 13:00:00,52.2,45.2,29.47,SSE,163,0.0,0.0,77,0.00,,---,0.00,VWS V14.00,2013-03-14 20:00:00,
2013-03-14 13:05:00,52.2,45.5,29.47,ESE,123,0.0,0.0,78,0.00,,---,0.00,VWS V14.00,2013-03-14 20:05:00,
2013-03-14 13:10:00,52.3,45.3,29.47,SE,138,0.0,0.0,77,0.00,,---,0.00,VWS V14.00,2013-03-14 20:10:00,
2013-03-14 13:15:00,52.5,45.5,29.47,ESE,104,0.0,0.0,77,0.00,,---,0.00,VWS V14.00,2013-03-14 20:15:00,
2013-03-14 13:20:00,52.3,45.0,29.47,East,101,0.0,0.0,76,0.00,,---,0.00,VWS V14.00,2013-03-14 20:20:00,
2013-03-14 13:25:00,52.2,45.5,29.47,South,169,0.0,0.0,78,0.00,,---,0.00,VWS V14.00,2013-03-14 20:25:00,
2013-03-14 13:30:00,51.8,45.2,29.47,SSE,160,0.0,3.6,78,0.00,,---,0.00,VWS V14.00,2013-03-14 20:30:00,
2013-03-14 13:35:00,51.8,45.8,29.47,ESE,108,0.0,3.6,80,0.00,,---,0.00,VWS V14.00,2013-03-14 20:35:00,
2013-03-14 13:40:00,51.6,46.0,29.47,ESE,110,2.2,3.6,81,0.00,,---,0.00,VWS V14.00,2013-03-14 20:40:00,
2013-03-14 13:45:00,51.6,46.3,29.47,East,90,3.1,3.6,82,0.00,,---,0.00,VWS V14.00,2013-03-14 20:45:00,
2013-03-14 13:50:00,51.6,46.6,29.47,SE,130,0.0,3.6,83,0.00,,---,0.00,VWS V14.00,2013-03-14 20:50:00,
2013-03-14 13:55:00,51.8,46.8,29.44,SE,143,0.0,3.6,83,0.00,,---,0.00,VWS V14.00,2013-03-14 20:55:00,
2013-03-14 14:00:00,52.0,47.0,29.44,SSE,156,0.0,3.6,83,0.00,,---,0.00,VWS V14.00,2013-03-14 21:00:00,
2013-03-14 14:05:00,52.2,47.2,29.44,SSE,147,0.0,0.0,83,0.00,,---,0.00,VWS V14.00,2013-03-14 21:05:00,
2013-03-14 14:10:00,52.2,47.2,29.44,SE,139,0.0,2.2,83,0.00,,---,0.00,VWS V14.00,2013-03-14 21:10:00,
2013-03-14 14:15:00,52.2,47.2,29.44,ESE,120,0.0,2.2,83,0.00,,---,0.00,VWS V14.00,2013-03-14 21:15:00,
2013-03-14 14:20:00,52.3,47.3,29.44,South,174,0.0,3.6,83,0.00,,---,0.00,VWS V14.00,2013-03-14 21:20:00,
2013-03-14 14:25:00,52.5,47.5,29.44,South,180,2.7,3.1,83,0.00,,---,0.00,VWS V14.00,2013-03-14 21:25:00,
2013-03-14 14:30:00,52.3,47.3,29.44,South,172,2.2,3.1,83,0.00,,---,0.00,VWS V14.00,2013-03-14 21:30:00,
2013-03-14 14:35:00,52.3,47.3,29.44,SSE,156,0.0,3.1,83,0.00,,---,0.00,VWS V14.00,2013-03-14 21:35:00,
2013-03-14 14:40:00,52.5,47.5,29.44,South,174,0.0,0.0,83,0.00,,---,0.00,VWS V14.00,2013-03-14 21:40:00,
2013-03-14 14:45:00,52.3,47.3,29.44,South,175,0.0,3.6,83,0.00,,---,0.00,VWS V14.00,2013-03-14 21:45:00,
2013-03-14 14:50:00,52.3,47.0,29.44,SSE,161,2.7,3.6,82,0.00,,---,0.00,VWS V14.00,2013-03-14 21:50:00,
2013-03-14 14:55:00,52.3,47.0,29.44,SW,216,0.0,3.6,82,0.00,,---,0.00,VWS V14.00,2013-03-14 21:55:00,
2013-03-14 15:00:00,52.3,47.0,29.44,South,171,0.0,3.6,82,0.00,,---,0.00,VWS V14.00,2013-03-14 22:00:00,
2013-03-14 15:05:00,52.2,46.5,29.44,SSE,153,0.0,3.6,81,0.00,,---,0.00,VWS V14.00,2013-03-14 22:05:00,
2013-03-14 15:10:00,52.3,46.7,29.44,South,169,0.0,4.0,81,0.00,,---,0.00,VWS V14.00,2013-03-14 22:10:00,
2013-03-14 15:15:00,52.5,46.5,29.44,South,174,0.0,4.0,80,0.00,,---,0.00,VWS V14.00,2013-03-14 22:15:00,
2013-03-14 15:20:00,52.5,46.2,29.44,South,173,0.0,0.0,79,0.00,,---,0.00,VWS V14.00,2013-03-14 22:20:00,
2013-03-14 15:25:00,52.7,46.4,29.44,South,173,0.0,0.0,79,0.00,,---,0.00,VWS V14.00,2013-03-14 22:25:00,
2013-03-14 15:30:00,52.7,46.4,29.44,SE,130,0.0,0.0,79,0.00,,---,0.00,VWS V14.00,2013-03-14 22:30:00,
2013-03-14 15:35:00,52.7,45.0,29.44,ESE,102,0.0,0.0,75,0.00,,---,0.00,VWS V14.00,2013-03-14 22:35:00,
2013-03-14 15:40:00,52.3,44.3,29.44,ESE,108,0.0,0.0,74,0.00,,---,0.00,VWS V14.00,2013-03-14 22:40:00,
2013-03-14 15:45:00,52.2,44.1,29.44,ESE,122,0.0,2.7,74,0.00,,---,0.00,VWS V14.00,2013-03-14 22:45:00,
2013-03-14 15:50:00,52.2,43.8,29.44,ESE,107,0.0,3.1,73,0.00,,---,0.00,VWS V14.00,2013-03-14 22:50:00,
2013-03-14 15:55:00,52.3,44.3,29.44,SE,133,0.0,3.1,74,0.00,,---,0.00,VWS V14.00,2013-03-14 22:55:00,
2013-03-14 16:00:00,52.3,44.3,29.44,SSE,155,0.0,0.0,74,0.00,,---,0.00,VWS V14.00,2013-03-14 23:00:00,
2013-03-14 16:05:00,52.3,44.3,29.44,SSE,154,0.0,2.7,74,0.00,,---,0.00,VWS V14.00,2013-03-14 23:05:00,
2013-03-14 16:10:00,52.3,44.3,29.47,ESE,117,0.0,2.7,74,0.00,,---,0.00,VWS V14.00,2013-03-14 23:10:00,
2013-03-14 16:15:00,52.5,44.5,29.47,South,171,0.0,2.7,74,0.00,,---,0.00,VWS V14.00,2013-03-14 23:15:00,
2013-03-14 16:20:00,52.7,44.7,29.47,South,176,0.0,0.0,74,0.00,,---,0.00,VWS V14.00,2013-03-14 23:20:00,
2013-03-14 16:25:00,52.7,44.7,29.47,South,171,0.0,3.1,74,0.00,,---,0.00,VWS V14.00,2013-03-14 23:25:00,
2013-03-14 16:30:00,52.7,44.3,29.47,SSW,199,3.6,4.9,73,0.00,,---,0.00,VWS V14.00,2013-03-14 23:30:00,
2013-03-14 16:35:00,52.9,44.5,29.47,South,184,0.0,4.9,73,0.00,,---,0.00,VWS V14.00,2013-03-14 23:35:00,
2013-03-14 16:40:00,53.1,44.7,29.47,South,181,0.0,0.0,73,0.00,,---,0.00,VWS V14.00,2013-03-14 23:40:00,
2013-03-14 16:46:00,53.1,44.7,29.47,SSW,209,0.0,4.0,73,0.00,,---,0.00,VWS V14.00,2013-03-14 23:46:00,
2013-03-14 16:51:00,53.2,44.8,29.47,SE,124,0.0,4.0,73,0.00,,---,0.00,VWS V14.00,2013-03-14 23:51:00,
2013-03-14 16:56:00,53.2,44.5,29.44,South,187,0.0,4.0,72,0.00,,---,0.00,VWS V14.00,2013-03-14 23:56:00,
2013-03-14 17:01:00,53.2,44.1,29.44,SSE,149,0.0,0.0,71,0.00,,---,0.00,VWS V14.00,2013-03-15 00:01:00,
2013-03-14 17:06:00,53.4,43.9,29.44,South,177,0.0,2.7,70,0.00,,---,0.00,VWS V14.00,2013-03-15 00:06:00,
2013-03-14 17:11:00,53.2,43.3,29.44,ESE,118,0.0,5.8,69,0.00,,---,0.00,VWS V14.00,2013-03-15 00:11:00,
2013-03-14 17:16:00,53.1,42.8,29.44,SSW,194,0.0,5.8,68,0.00,,---,0.00,VWS V14.00,2013-03-15 00:16:00,
2013-03-14 17:21:00,52.9,42.6,29.44,SSW,208,3.6,4.0,68,0.00,,---,0.00,VWS V14.00,2013-03-15 00:21:00,
2013-03-14 17:26:00,52.5,41.5,29.47,ESE,102,0.0,5.8,66,0.00,,---,0.00,VWS V14.00,2013-03-15 00:26:00,
2013-03-14 17:31:00,52.5,41.5,29.47,East,92,0.0,5.8,66,0.00,,---,0.00,VWS V14.00,2013-03-15 00:31:00,
2013-03-14 17:36:00,52.5,41.5,29.47,SSE,155,0.0,5.8,66,0.00,,---,0.00,VWS V14.00,2013-03-15 00:36:00,
2013-03-14 17:41:00,52.5,40.7,29.47,SSE,150,0.0,5.8,64,0.00,,---,0.00,VWS V14.00,2013-03-15 00:41:00,
2013-03-14 17:46:00,52.5,40.7,29.47,NE,53,2.2,5.8,64,0.00,,---,0.00,VWS V14.00,2013-03-15 00:46:00,
2013-03-14 17:51:00,52.3,40.5,29.47,SE,143,0.0,5.8,64,0.00,,---,0.00,VWS V14.00,2013-03-15 00:51:00,
2013-03-14 17:56:00,52.3,40.1,29.47,SE,146,0.0,5.8,63,0.00,,---,0.00,VWS V14.00,2013-03-15 00:56:00,
2013-03-14 18:01:00,52.3,40.1,29.47,South,171,0.0,2.7,63,0.00,,---,0.00,VWS V14.00,2013-03-15 01:01:00,
2013-03-14 18:07:00,52.3,40.1,29.47,SE,140,2.7,3.6,63,0.00,,---,0.00,VWS V14.00,2013-03-15 01:07:00,
2013-03-14 18:12:00,52.5,40.3,29.47,SSW,192,2.7,5.4,63,0.00,,---,0.00,VWS V14.00,2013-03-15 01:12:00,
2013-03-14 18:17:00,52.5,40.7,29.47,SSW,204,3.1,5.4,64,0.00,,---,0.00,VWS V14.00,2013-03-15 01:17:00,
2013-03-14 18:22:00,52.5,40.3,29.47,SSE,162,2.7,3.6,63,0.00,,---,0.00,VWS V14.00,2013-03-15 01:22:00,
2013-03-14 18:27:00,52.3,40.1,29.47,SSE,156,0.0,4.9,63,0.00,,---,0.00,VWS V14.00,2013-03-15 01:27:00,
2013-03-14 18:32:00,52.3,40.5,29.47,South,190,2.2,7.6,64,0.00,,---,0.00,VWS V14.00,2013-03-15 01:32:00,
2013-03-14 18:37:00,52.3,40.5,29.47,SSE,162,0.0,7.6,64,0.00,,---,0.00,VWS V14.00,2013-03-15 01:37:00,
2013-03-14 18:42:00,52.2,40.8,29.47,SE,130,4.9,4.9,65,0.00,,---,0.00,VWS V14.00,2013-03-15 01:42:00,
2013-03-14 18:47:00,52.0,41.0,29.47,SSW,194,0.0,7.2,66,0.00,,---,0.00,VWS V14.00,2013-03-15 01:47:00,
2013-03-14 18:52:00,51.8,41.2,29.50,SE,139,3.6,7.2,67,0.00,,---,0.00,VWS V14.00,2013-03-15 01:52:00,
2013-03-14 18:57:00,51.6,41.4,29.50,SW,225,0.0,7.2,68,0.00,,---,0.00,VWS V14.00,2013-03-15 01:57:00,
2013-03-14 19:02:00,51.6,42.2,29.50,SSE,166,0.0,0.0,70,0.00,,---,0.00,VWS V14.00,2013-03-15 02:02:00,
2013-03-14 19:07:00,51.6,42.5,29.47,SW,222,0.0,0.0,71,0.00,,---,0.00,VWS V14.00,2013-03-15 02:07:00,
2013-03-14 19:12:00,51.6,42.9,29.47,SSW,203,2.2,5.4,72,0.00,,---,0.00,VWS V14.00,2013-03-15 02:12:00,
2013-03-14 19:17:00,51.4,42.4,29.47,SSE,153,0.0,5.4,71,0.00,,---,0.00,VWS V14.00,2013-03-15 02:17:00,
2013-03-14 19:22:00,51.3,42.2,29.47,SSE,159,0.0,2.7,71,0.00,,---,0.00,VWS V14.00,2013-03-15 02:22:00,
2013-03-14 19:27:00,51.3,42.5,29.47,SSE,163,0.0,3.6,72,0.00,,---,0.00,VWS V14.00,2013-03-15 02:27:00,
2013-03-14 19:32:00,50.9,42.2,29.47,SE,141,0.0,3.6,72,0.00,,---,0.00,VWS V14.00,2013-03-15 02:32:00,
2013-03-14 19:37:00,50.9,42.2,29.50,SSW,197,0.0,3.6,72,0.00,,---,0.00,VWS V14.00,2013-03-15 02:37:00,
2013-03-14 19:42:00,51.1,42.4,29.50,SSW,201,0.0,0.0,72,0.00,,---,0.00,VWS V14.00,2013-03-15 02:42:00,
2013-03-14 19:47:00,51.3,42.5,29.50,SE,128,0.0,0.0,72,0.00,,---,0.00,VWS V14.00,2013-03-15 02:47:00,
2013-03-14 19:52:00,51.4,42.7,29.50,SE,125,0.0,0.0,72,0.00,,---,0.00,VWS V14.00,2013-03-15 02:52:00,
2013-03-14 19:57:00,51.4,43.1,29.50,ESE,119,0.0,0.0,73,0.00,,---,0.00,VWS V14.00,2013-03-15 02:57:00,
2013-03-14 20:02:00,51.4,43.4,29.50,East,96,0.0,0.0,74,0.00,,---,0.00,VWS V14.00,2013-03-15 03:02:00,
2013-03-14 20:07:00,51.4,43.1,29.47,East,98,0.0,2.2,73,0.00,,---,0.00,VWS V14.00,2013-03-15 03:07:00,
2013-03-14 20:12:00,51.1,43.1,29.47,South,173,0.0,2.2,74,0.00,,---,0.00,VWS V14.00,2013-03-15 03:12:00,
2013-03-14 20:17:00,50.9,42.9,29.47,ESE,112,0.0,3.6,74,0.00,,---,0.00,VWS V14.00,2013-03-15 03:17:00,
2013-03-14 20:22:00,50.9,42.9,29.50,SSE,166,0.0,0.0,74,0.00,,---,0.00,VWS V14.00,2013-03-15 03:22:00,
2013-03-14 20:27:00,51.1,43.1,29.50,East,98,0.0,4.0,74,0.00,,---,0.00,VWS V14.00,2013-03-15 03:27:00,
2013-03-14 20:32:00,51.1,43.1,29.50,ESE,113,0.0,4.0,74,0.00,,---,0.00,VWS V14.00,2013-03-15 03:32:00,
2013-03-14 20:38:00,51.3,43.3,29.50,ENE,77,0.0,4.0,74,0.00,,---,0.00,VWS V14.00,2013-03-15 03:38:00,
2013-03-14 20:43:00,51.3,43.3,29.50,SE,127,0.0,0.0,74,0.00,,---,0.00,VWS V14.00,2013-03-15 03:43:00,
2013-03-14 20:48:00,51.1,43.4,29.50,ESE,122,0.0,2.2,75,0.00,,---,0.00,VWS V14.00,2013-03-15 03:48:00,
2013-03-14 20:53:00,51.1,43.4,29.50,South,177,0.0,2.2,75,0.00,,---,0.00,VWS V14.00,2013-03-15 03:53:00,
2013-03-14 20:57:00,50.9,43.3,29.50,ESE,122,0.0,2.2,75,0.00,,---,0.00,VWS V14.00,2013-03-15 03:57:00,
2013-03-14 21:00:00,50.9,43.3,29.50,South,180,0.0,2.2,75,0.00,,---,0.00,VWS V14.00,2013-03-15 04:00:00,
2013-03-14 21:05:00,50.9,42.9,29.50,ESE,115,2.2,2.2,74,0.00,,---,0.00,VWS V14.00,2013-03-15 04:05:00,
2013-03-14 21:10:00,50.7,43.1,29.50,South,190,0.0,2.2,75,0.00,,---,0.00,VWS V14.00,2013-03-15 04:10:00,
2013-03-14 21:15:00,50.7,43.1,29.50,ESE,106,0.0,3.1,75,0.00,,---,0.00,VWS V14.00,2013-03-15 04:15:00,
2013-03-14 21:20:00,50.7,43.1,29.50,SE,145,0.0,4.5,75,0.00,,---,0.00,VWS V14.00,2013-03-15 04:20:00,
2013-03-14 21:25:00,50.7,43.4,29.50,SSE,152,0.0,3.6,76,0.00,,---,0.00,VWS V14.00,2013-03-15 04:25:00,
2013-03-14 21:30:00,50.7,43.8,29.50,SSE,149,2.2,3.6,77,0.00,,---,0.00,VWS V14.00,2013-03-15 04:30:00,
2013-03-14 21:35:00,50.5,44.0,29.50,SE,138,0.0,3.6,78,0.00,,---,0.00,VWS V14.00,2013-03-15 04:35:00,
2013-03-14 21:40:00,50.4,44.1,29.50,SE,145,0.0,3.6,79,0.00,,---,0.00,VWS V14.00,2013-03-15 04:40:00,
2013-03-14 21:45:00,50.2,44.3,29.50,ESE,117,2.2,3.1,80,0.00,,---,0.00,VWS V14.00,2013-03-15 04:45:00,
2013-03-14 21:50:00,50.2,44.6,29.50,SSE,164,0.0,3.6,81,0.00,,---,0.00,VWS V14.00,2013-03-15 04:50:00,
2013-03-14 21:55:00,50.2,44.9,29.50,ESE,109,0.0,3.6,82,0.00,,---,0.00,VWS V14.00,2013-03-15 04:55:00,
2013-03-14 22:00:00,50.2,44.9,29.50,SSE,155,0.0,3.6,82,0.00,,---,0.00,VWS V14.00,2013-03-15 05:00:00,
2013-03-14 22:05:00,50.2,44.9,29.50,SSE,158,0.0,2.7,82,0.00,,---,0.00,VWS V14.00,2013-03-15 05:05:00,
2013-03-14 22:10:00,50.0,45.0,29.53,SSW,196,0.0,2.7,83,0.00,,---,0.00,VWS V14.00,2013-03-15 05:10:00,
2013-03-14 22:15:00,50.0,45.0,29.53,NE,54,0.0,2.7,83,0.00,,---,0.00,VWS V14.00,2013-03-15 05:15:00,
2013-03-14 22:20:00,49.6,45.0,29.53,SE,135,0.0,0.0,84,0.00,,---,0.00,VWS V14.00,2013-03-15 05:20:00,
2013-03-14 22:25:00,49.6,45.3,29.53,East,91,0.0,2.7,85,0.00,,---,0.00,VWS V14.00,2013-03-15 05:25:00,
2013-03-14 22:30:00,49.8,45.5,29.53,ESE,111,2.2,3.1,85,0.00,,---,0.00,VWS V14.00,2013-03-15 05:30:00,
2013-03-14 22:36:00,49.8,45.5,29.53,East,93,0.0,3.1,85,0.00,,---,0.00,VWS V14.00,2013-03-15 05:36:00,
2013-03-14 22:41:00,49.8,45.5,29.53,SE,128,0.0,0.0,85,0.00,,---,0.00,VWS V14.00,2013-03-15 05:41:00,
2013-03-14 22:46:00,50.0,45.4,29.53,ESE,111,0.0,2.2,84,0.00,,---,0.00,VWS V14.00,2013-03-15 05:46:00,
2013-03-14 22:51:00,50.0,45.4,29.53,SE,139,0.0,2.2,84,0.00,,---,0.00,VWS V14.00,2013-03-15 05:51:00,
2013-03-14 22:56:00,49.8,45.5,29.53,SE,130,0.0,2.2,85,0.00,,---,0.00,VWS V14.00,2013-03-15 05:56:00,
2013-03-14 23:01:00,49.8,45.5,29.53,SE,142,0.0,0.0,85,0.00,,---,0.00,VWS V14.00,2013-03-15 06:01:00,
2013-03-14 23:06:00,49.8,45.5,29.53,South,187,0.0,0.0,85,0.00,,---,0.00,VWS V14.00,2013-03-15 06:06:00,
2013-03-14 23:11:00,49.8,45.8,29.53,SSE,166,0.0,0.0,86,0.00,,---,0.00,VWS V14.00,2013-03-15 06:11:00,
2013-03-14 23:16:00,49.8,45.8,29.53,SE,144,0.0,2.2,86,0.00,,---,0.00,VWS V14.00,2013-03-15 06:16:00,
2013-03-14 23:21:00,49.8,45.8,29.53,SE,129,0.0,0.0,86,0.00,,---,0.00,VWS V14.00,2013-03-15 06:21:00,
2013-03-14 23:26:00,49.8,45.8,29.53,ESE,106,0.0,0.0,86,0.00,,---,0.00,VWS V14.00,2013-03-15 06:26:00,
2013-03-14 23:31:00,49.8,45.8,29.53,South,184,0.0,0.0,86,0.00,,---,0.00,VWS V14.00,2013-03-15 06:31:00,
2013-03-14 23:36:00,49.8,45.8,29.53,SSE,147,0.0,0.0,86,0.00,,---,0.00,VWS V14.00,2013-03-15 06:36:00,
2013-03-14 23:42:00,49.8,46.1,29.53,East,96,2.2,2.2,87,0.00,,---,0.00,VWS V14.00,2013-03-15 06:42:00,
2013-03-14 23:47:00,49.8,46.1,29.53,SE,143,0.0,2.2,87,0.00,,---,0.00,VWS V14.00,2013-03-15 06:47:00,
2013-03-14 23:52:00,49.6,45.9,29.53,SSE,164,0.0,3.6,87,0.00,,---,0.00,VWS V14.00,2013-03-15 06:52:00,
2013-03-14 23:57:00,49.6,46.2,29.53,SSE,156,0.0,3.6,88,0.00,,---,0.00,VWS V14.00,2013-03-15 06:57:00,